createdAt,value
2022-12-03T00:02:25.478Z,100.00
2022-12-03T00:07:27.018Z,100.00
2022-12-03T00:12:28.513Z,100.00
2022-12-03T00:17:30.000Z,100.00
2022-12-03T00:22:31.559Z,100.00
2022-12-03T00:27:33.034Z,100.00
2022-12-03T00:32:34.582Z,100.00
2022-12-03T00:37:36.143Z,100.00
2022-12-03T00:42:37.578Z,100.00
2022-12-03T00:47:39.072Z,100.00
2022-12-03T00:52:40.529Z,100.00
2022-12-03T00:57:42.275Z,100.00
2022-12-03T01:02:43.834Z,100.00
2022-12-03T01:07:45.967Z,100.00
2022-12-03T01:12:47.504Z,100.00
2022-12-03T01:17:48.924Z,100.00
2022-12-03T01:22:50.367Z,100.00
2022-12-03T01:27:51.825Z,100.00
2022-12-03T01:32:54.460Z,100.00
2022-12-03T01:37:55.894Z,100.00
2022-12-03T01:42:57.338Z,100.00
2022-12-03T01:47:58.864Z,100.00
2022-12-03T01:53:03.095Z,100.00
2022-12-03T01:58:05.082Z,100.00
2022-12-03T02:03:18.478Z,100.00
2022-12-03T02:08:31.286Z,100.00
2022-12-03T02:13:33.499Z,100.00
2022-12-03T02:18:35.239Z,100.00
2022-12-03T02:24:02.467Z,100.00
2022-12-03T02:29:04.114Z,100.00
2022-12-03T02:34:08.548Z,100.00
2022-12-03T02:39:10.038Z,100.00
2022-12-03T02:44:12.060Z,100.00
2022-12-03T02:49:13.862Z,100.00
2022-12-03T02:54:15.459Z,100.00
2022-12-03T02:59:17.013Z,100.00
2022-12-03T03:04:18.671Z,100.00
2022-12-03T03:09:21.172Z,100.00
2022-12-03T03:14:22.679Z,100.00
2022-12-03T03:19:28.539Z,100.00
2022-12-03T03:24:30.077Z,100.00
2022-12-03T03:29:33.539Z,100.00
2022-12-03T03:34:35.027Z,100.00
2022-12-03T03:39:36.553Z,100.00
2022-12-03T03:44:38.347Z,100.00
2022-12-03T03:49:40.450Z,100.00
2022-12-03T03:54:41.926Z,100.00
2022-12-03T03:59:43.506Z,100.00
2022-12-03T04:04:45.220Z,100.00
2022-12-03T04:09:46.695Z,100.00
2022-12-03T04:14:48.156Z,100.00
2022-12-03T04:19:49.691Z,100.00
2022-12-03T04:24:51.456Z,100.00
2022-12-03T04:29:53.084Z,100.00
2022-12-03T04:35:13.025Z,100.00
2022-12-03T04:40:33.194Z,100.00
2022-12-03T04:45:34.710Z,100.00
2022-12-03T04:50:36.254Z,100.00
2022-12-03T04:55:37.689Z,100.00
2022-12-03T05:00:39.230Z,100.00
2022-12-03T05:05:40.707Z,100.00
2022-12-03T05:10:42.135Z,100.00
2022-12-03T05:15:43.594Z,100.00
2022-12-03T05:20:51.455Z,100.00
2022-12-03T05:25:54.788Z,100.00
2022-12-03T05:30:56.319Z,100.00
2022-12-03T05:35:57.827Z,100.00
2022-12-03T05:40:59.332Z,100.00
2022-12-03T05:46:00.875Z,100.00
2022-12-03T05:51:02.339Z,100.00
2022-12-03T05:56:03.976Z,100.00
2022-12-03T06:01:05.543Z,100.00
2022-12-03T06:06:07.078Z,100.00
2022-12-03T06:11:08.455Z,100.00
2022-12-03T06:16:09.905Z,100.00
2022-12-03T06:21:11.410Z,100.00
2022-12-03T06:26:13.856Z,100.00
2022-12-03T06:31:15.460Z,100.00
2022-12-03T06:36:22.619Z,100.00
2022-12-03T06:41:24.639Z,100.00
2022-12-03T06:46:26.187Z,100.00
2022-12-03T06:51:27.778Z,100.00
2022-12-03T06:56:35.053Z,100.00
2022-12-03T07:01:38.471Z,100.00
2022-12-03T07:06:39.958Z,100.00
2022-12-03T07:11:41.446Z,100.00
2022-12-03T07:16:43.765Z,100.00
2022-12-03T07:21:45.361Z,100.00
2022-12-03T07:26:46.864Z,100.00
2022-12-03T07:31:48.434Z,100.00
2022-12-03T07:36:49.936Z,100.00
2022-12-03T07:41:51.452Z,100.00
2022-12-03T07:46:52.976Z,100.00
2022-12-03T07:51:54.651Z,100.00
2022-12-03T07:57:01.123Z,100.00
2022-12-03T08:02:03.479Z,100.00
2022-12-03T08:07:05.052Z,100.00
2022-12-03T08:12:18.267Z,100.00
2022-12-03T08:17:21.656Z,100.00
2022-12-03T08:22:23.253Z,100.00
2022-12-03T08:27:24.709Z,100.00
2022-12-03T08:32:26.345Z,100.00
2022-12-03T08:37:29.806Z,100.00
2022-12-03T08:42:42.078Z,100.00
2022-12-03T08:47:43.596Z,100.00
2022-12-03T08:52:45.060Z,100.00
2022-12-03T08:57:46.628Z,100.00
2022-12-03T09:02:51.323Z,100.00
2022-12-03T09:07:52.884Z,100.00
2022-12-03T09:12:54.354Z,100.00
2022-12-03T09:17:55.821Z,100.00
2022-12-03T09:22:57.335Z,100.00
2022-12-03T09:27:58.849Z,100.00
2022-12-03T09:33:00.367Z,100.00
2022-12-03T09:38:02.076Z,100.00
2022-12-03T09:43:03.607Z,100.00
2022-12-03T09:48:05.375Z,100.00
2022-12-03T09:53:06.973Z,100.00
2022-12-03T09:58:18.028Z,100.00
2022-12-03T10:03:28.272Z,100.00
2022-12-03T10:08:32.775Z,100.00
2022-12-03T10:13:37.258Z,100.00
2022-12-03T10:18:42.913Z,100.00
2022-12-03T10:23:48.455Z,100.00
2022-12-03T10:28:53.690Z,100.00
2022-12-03T10:33:58.156Z,100.00
2022-12-03T10:39:12.319Z,100.00
2022-12-03T10:44:30.485Z,100.00
2022-12-03T10:49:32.362Z,100.00
2022-12-03T10:54:35.535Z,100.00
2022-12-03T10:59:38.705Z,100.00
2022-12-03T11:04:40.635Z,100.00
2022-12-03T11:09:48.145Z,100.00
2022-12-03T11:14:56.659Z,100.00
2022-12-03T11:19:59.247Z,100.00
2022-12-03T11:25:25.463Z,100.00
2022-12-03T11:30:48.903Z,100.00
2022-12-03T11:35:59.577Z,100.00
2022-12-03T11:41:13.258Z,100.00
2022-12-03T11:46:14.823Z,100.00
2022-12-03T11:51:18.205Z,100.00
2022-12-03T11:56:23.259Z,100.00
2022-12-03T12:01:38.778Z,100.00
2022-12-03T12:06:47.489Z,100.00
2022-12-03T12:11:53.189Z,100.00
2022-12-03T12:16:55.505Z,100.00
2022-12-03T12:22:19.846Z,99.15
2022-12-03T12:27:29.932Z,99.86
2022-12-03T12:32:44.833Z,98.63
2022-12-03T12:38:07.754Z,96.52
2022-12-03T12:43:16.472Z,97.39
2022-12-03T12:48:34.104Z,95.60
2022-12-03T12:53:38.231Z,95.49
2022-12-03T12:58:40.305Z,94.90
2022-12-03T13:03:41.747Z,91.09
2022-12-03T13:08:45.646Z,90.46
2022-12-03T13:13:47.126Z,87.39
2022-12-03T13:18:53.449Z,87.88
2022-12-03T13:23:57.217Z,86.43
2022-12-03T13:28:59.712Z,84.55
2022-12-03T13:34:01.989Z,86.87
2022-12-03T13:39:26.994Z,86.87
2022-12-03T13:44:30.853Z,87.46
2022-12-03T13:49:32.324Z,89.27
2022-12-03T13:54:37.332Z,89.00
2022-12-03T13:59:38.957Z,90.68
2022-12-03T14:04:40.465Z,90.99
2022-12-03T14:09:42.207Z,90.30
2022-12-03T14:14:43.731Z,90.31
2022-12-03T14:19:45.257Z,90.32
2022-12-03T14:24:46.762Z,91.00
2022-12-03T14:29:48.536Z,90.49
2022-12-03T14:34:50.176Z,89.55
2022-12-03T14:39:51.811Z,90.28
2022-12-03T14:44:53.453Z,89.41
2022-12-03T14:49:55.056Z,89.47
2022-12-03T14:54:56.954Z,90.06
2022-12-03T14:59:58.436Z,91.27
2022-12-03T15:04:59.927Z,90.31
2022-12-03T15:10:01.458Z,91.61
2022-12-03T15:15:03.140Z,91.69
2022-12-03T15:20:05.245Z,91.43
2022-12-03T15:25:07.789Z,91.70
2022-12-03T15:30:09.750Z,91.70
2022-12-03T15:35:13.589Z,91.64
2022-12-03T15:40:15.115Z,91.84
2022-12-03T15:45:16.652Z,91.72
2022-12-03T15:50:18.231Z,91.82
2022-12-03T15:55:19.922Z,92.60
2022-12-03T16:00:21.773Z,92.58
2022-12-03T16:05:23.377Z,93.06
2022-12-03T16:10:24.840Z,92.98
2022-12-03T16:15:29.749Z,93.23
2022-12-03T16:20:31.222Z,93.28
2022-12-03T16:25:32.629Z,93.44
2022-12-03T16:30:34.194Z,93.98
2022-12-03T16:35:35.723Z,93.83
2022-12-03T16:40:37.278Z,94.17
2022-12-03T16:46:01.844Z,94.28
2022-12-03T16:51:03.486Z,94.15
2022-12-03T16:56:05.181Z,93.99
2022-12-03T17:01:06.864Z,94.73
2022-12-03T17:06:08.430Z,94.57
2022-12-03T17:11:09.955Z,93.69
2022-12-03T17:16:11.572Z,93.61
2022-12-03T17:21:13.207Z,93.90
2022-12-03T17:26:15.226Z,94.47
2022-12-03T17:31:16.815Z,94.77
2022-12-03T17:36:18.326Z,94.91
2022-12-03T17:41:19.808Z,95.46
2022-12-03T17:46:21.382Z,95.63
2022-12-03T17:51:24.432Z,94.46
2022-12-03T17:56:25.856Z,94.98
2022-12-03T18:01:27.348Z,95.22
2022-12-03T18:06:28.882Z,95.34
2022-12-03T18:11:30.514Z,95.09
2022-12-03T18:16:32.020Z,95.02
2022-12-03T18:21:34.801Z,95.15
2022-12-03T18:26:36.389Z,95.10
2022-12-03T18:31:37.924Z,95.45
2022-12-03T18:36:39.429Z,95.27
2022-12-03T18:41:40.911Z,95.53
2022-12-03T18:46:53.675Z,95.82
2022-12-03T18:51:59.314Z,95.92
2022-12-03T18:57:01.141Z,94.80
2022-12-03T19:02:02.870Z,94.59
2022-12-03T19:07:04.822Z,95.05
2022-12-03T19:12:14.283Z,95.19
2022-12-03T19:17:16.208Z,95.28
2022-12-03T19:22:17.702Z,95.32
2022-12-03T19:27:19.418Z,96.02
2022-12-03T19:32:20.865Z,96.17
2022-12-03T19:37:22.318Z,95.51
2022-12-03T19:42:23.730Z,96.41
2022-12-03T19:47:25.502Z,95.34
2022-12-03T19:52:26.958Z,95.91
2022-12-03T19:57:28.438Z,95.08
2022-12-03T20:02:30.080Z,95.77
2022-12-03T20:07:31.719Z,96.45
2022-12-03T20:12:33.299Z,97.24
2022-12-03T20:17:34.891Z,96.38
2022-12-03T20:22:36.358Z,95.93
2022-12-03T20:27:38.242Z,95.79
2022-12-03T20:32:45.017Z,96.16
2022-12-03T20:37:47.012Z,95.38
2022-12-03T20:42:48.468Z,95.99
2022-12-03T20:47:49.944Z,96.60
2022-12-03T20:53:09.760Z,96.15
2022-12-03T20:58:12.886Z,95.93
2022-12-03T21:03:14.428Z,95.31
2022-12-03T21:08:16.023Z,95.37
2022-12-03T21:13:18.252Z,95.71
2022-12-03T21:18:19.751Z,95.03
2022-12-03T21:23:21.184Z,95.31
2022-12-03T21:28:22.625Z,95.16
2022-12-03T21:33:24.098Z,96.11
2022-12-03T21:38:26.521Z,95.56
2022-12-03T21:43:29.328Z,95.30
2022-12-03T21:48:30.831Z,95.88
2022-12-03T21:53:35.195Z,95.39
2022-12-03T21:58:39.582Z,95.73
2022-12-03T22:03:42.509Z,96.71
2022-12-03T22:08:44.192Z,96.11
2022-12-03T22:13:45.989Z,97.11
2022-12-03T22:18:47.901Z,97.07
2022-12-03T22:23:49.462Z,97.05
2022-12-03T22:28:51.068Z,96.19
2022-12-03T22:33:52.513Z,95.80
2022-12-03T22:38:53.978Z,95.61
2022-12-03T22:43:55.403Z,96.37
2022-12-03T22:48:59.451Z,95.91
2022-12-03T22:54:05.688Z,95.55
2022-12-03T22:59:07.286Z,96.08
2022-12-03T23:04:10.665Z,96.33
2022-12-03T23:09:12.263Z,96.01
2022-12-03T23:14:14.161Z,96.05
2022-12-03T23:19:15.660Z,95.65
2022-12-03T23:24:17.062Z,96.08
2022-12-03T23:29:18.503Z,95.76
2022-12-03T23:34:20.027Z,95.50
2022-12-03T23:39:21.544Z,96.06
2022-12-03T23:44:22.985Z,95.66
2022-12-03T23:49:24.454Z,95.75
2022-12-03T23:54:26.188Z,95.70
2022-12-03T23:59:27.730Z,96.21
